createdAt,value
2023-04-15T00:02:08.786Z,99090.50
2023-04-15T00:04:37.967Z,99093.16
2023-04-15T00:07:05.681Z,99101.19
2023-04-15T00:09:34.044Z,99097.09
2023-04-15T00:12:02.116Z,99093.22
2023-04-15T00:14:31.201Z,99089.44
2023-04-15T00:17:00.560Z,99097.78
2023-04-15T00:19:28.564Z,99099.06
2023-04-15T00:21:57.155Z,99100.38
2023-04-15T00:24:25.686Z,99093.41
2023-04-15T00:26:53.844Z,99088.13
2023-04-15T00:29:21.868Z,99094.47
2023-04-15T00:31:49.697Z,99089.84
2023-04-15T00:34:17.927Z,99095.66
2023-04-15T00:36:45.604Z,99088.16
2023-04-15T00:39:13.524Z,99092.22
2023-04-15T00:41:41.110Z,99096.97
2023-04-15T00:44:09.512Z,99105.06
2023-04-15T00:46:37.532Z,99102.88
2023-04-15T00:49:05.154Z,99104.03
2023-04-15T00:51:33.909Z,99095.41
2023-04-15T00:54:02.288Z,99113.13
2023-04-15T00:56:29.951Z,99100.03
2023-04-15T00:58:58.199Z,99099.31
2023-04-15T01:01:26.248Z,99103.00
2023-04-15T01:03:54.161Z,99099.63
2023-04-15T01:06:22.470Z,99096.22
2023-04-15T01:08:50.092Z,99102.69
2023-04-15T01:11:18.018Z,99103.72
2023-04-15T01:13:45.667Z,99103.97
2023-04-15T01:16:13.669Z,99103.31
2023-04-15T01:18:41.678Z,99106.06
2023-04-15T01:21:09.825Z,99099.19
2023-04-15T01:23:38.874Z,99100.25
2023-04-15T01:26:06.488Z,99105.63
2023-04-15T01:28:34.287Z,99104.88
2023-04-15T01:31:02.130Z,99104.78
2023-04-15T01:33:29.732Z,99105.31
2023-04-15T01:35:57.689Z,99102.38
2023-04-15T01:38:25.402Z,99096.88
2023-04-15T01:40:53.519Z,99097.50
2023-04-15T01:43:23.295Z,99101.72
2023-04-15T01:45:50.881Z,99090.13
2023-04-15T01:48:19.187Z,99082.72
2023-04-15T01:50:46.829Z,99079.78
2023-04-15T01:53:14.412Z,99081.34
2023-04-15T01:55:42.187Z,99085.66
2023-04-15T01:58:10.065Z,99087.50
2023-04-15T02:00:38.041Z,99086.63
2023-04-15T02:03:05.722Z,99092.22
2023-04-15T02:05:33.975Z,99101.41
2023-04-15T02:08:01.643Z,99100.88
2023-04-15T02:10:29.215Z,99107.50
2023-04-15T02:12:57.358Z,99100.47
2023-04-15T02:15:25.170Z,99109.09
2023-04-15T02:17:55.409Z,99104.63
2023-04-15T02:20:23.501Z,99110.44
2023-04-15T02:22:51.065Z,99112.59
2023-04-15T02:25:19.048Z,99112.19
2023-04-15T02:27:47.074Z,99124.78
2023-04-15T02:30:14.695Z,99116.25
2023-04-15T02:32:45.315Z,99115.72
2023-04-15T02:35:13.620Z,99118.56
2023-04-15T02:37:44.118Z,99120.53
2023-04-15T02:40:12.514Z,99119.81
2023-04-15T02:42:40.221Z,99125.28
2023-04-15T02:45:08.113Z,99125.38
2023-04-15T02:47:36.171Z,99130.63
2023-04-15T02:50:04.573Z,99130.41
2023-04-15T02:52:32.187Z,99135.50
2023-04-15T02:55:00.972Z,99139.81
2023-04-15T02:57:29.829Z,99141.50
2023-04-15T02:59:57.413Z,99133.81
2023-04-15T03:02:25.074Z,99140.03
2023-04-15T03:04:52.756Z,99143.50
2023-04-15T03:07:20.336Z,99140.94
2023-04-15T03:09:48.046Z,99151.47
2023-04-15T03:12:16.048Z,99143.59
2023-04-15T03:14:44.044Z,99146.34
2023-04-15T03:17:11.648Z,99136.63
2023-04-15T03:19:39.350Z,99139.28
2023-04-15T03:22:06.959Z,99143.78
2023-04-15T03:24:34.549Z,99142.97
2023-04-15T03:27:03.173Z,99150.75
2023-04-15T03:29:30.848Z,99150.66
2023-04-15T03:31:58.451Z,99142.97
2023-04-15T03:34:27.419Z,99157.25
2023-04-15T03:36:55.058Z,99156.59
2023-04-15T03:39:22.691Z,99155.97
2023-04-15T03:41:50.365Z,99163.19
2023-04-15T03:44:18.024Z,99164.22
2023-04-15T03:46:45.954Z,99163.50
2023-04-15T03:49:13.863Z,99174.09
2023-04-15T03:51:41.819Z,99170.75
2023-04-15T03:54:09.409Z,99172.50
2023-04-15T03:56:37.518Z,99168.31
2023-04-15T03:59:05.092Z,99165.56
2023-04-15T04:01:32.712Z,99164.63
2023-04-15T04:04:00.836Z,99170.75
2023-04-15T04:06:28.570Z,99167.06
2023-04-15T04:08:56.823Z,99167.91
2023-04-15T04:11:24.457Z,99165.28
2023-04-15T04:13:51.993Z,99167.16
2023-04-15T04:16:20.005Z,99161.06
2023-04-15T04:18:48.066Z,99163.72
2023-04-15T04:21:15.750Z,99159.28
2023-04-15T04:23:43.398Z,99162.75
2023-04-15T04:26:11.138Z,99168.03
2023-04-15T04:28:40.903Z,99170.75
2023-04-15T04:31:08.675Z,99172.81
2023-04-15T04:33:36.321Z,99173.22
2023-04-15T04:36:03.999Z,99173.47
2023-04-15T04:38:31.575Z,99180.84
2023-04-15T04:41:00.032Z,99189.84
2023-04-15T04:43:27.624Z,99188.34
2023-04-15T04:45:55.308Z,99190.13
2023-04-15T04:48:23.128Z,99190.13
2023-04-15T04:50:50.697Z,99188.25
2023-04-15T04:53:18.650Z,99191.63
2023-04-15T04:55:46.381Z,99189.66
2023-04-15T04:58:13.986Z,99198.22
2023-04-15T05:00:42.214Z,99196.13
2023-04-15T05:03:10.174Z,99201.88
2023-04-15T05:05:39.913Z,99210.22
2023-04-15T05:08:07.488Z,99206.25
2023-04-15T05:10:35.127Z,99218.09
2023-04-15T05:13:02.930Z,99213.19
2023-04-15T05:15:30.749Z,99214.66
2023-04-15T05:17:58.813Z,99224.06
2023-04-15T05:20:26.584Z,99220.19
2023-04-15T05:22:54.151Z,99223.38
2023-04-15T05:25:23.496Z,99227.41
2023-04-15T05:27:51.079Z,99229.66
2023-04-15T05:30:19.059Z,99235.47
2023-04-15T05:32:47.030Z,99234.31
2023-04-15T05:35:14.633Z,99231.69
2023-04-15T05:37:42.415Z,99225.38
2023-04-15T05:40:10.880Z,99235.69
2023-04-15T05:42:38.871Z,99242.38
2023-04-15T05:45:09.203Z,99240.28
2023-04-15T05:47:37.523Z,99248.66
2023-04-15T05:50:05.154Z,99248.03
2023-04-15T05:52:32.759Z,99256.94
2023-04-15T05:55:00.956Z,99252.72
2023-04-15T05:57:28.559Z,99260.13
2023-04-15T05:59:57.420Z,99262.88
2023-04-15T06:02:25.269Z,99274.41
2023-04-15T06:04:53.079Z,99270.09
2023-04-15T06:07:21.094Z,99274.41
2023-04-15T06:09:49.688Z,99272.00
2023-04-15T06:12:17.285Z,99274.84
2023-04-15T06:14:45.337Z,99279.59
2023-04-15T06:17:15.079Z,99281.81
2023-04-15T06:19:43.035Z,99292.28
2023-04-15T06:22:10.617Z,99291.13
2023-04-15T06:24:38.337Z,99284.88
2023-04-15T06:27:06.150Z,99293.53
2023-04-15T06:29:33.799Z,99300.28
2023-04-15T06:32:01.746Z,99296.25
2023-04-15T06:34:29.336Z,99295.00
2023-04-15T06:36:57.606Z,99297.19
2023-04-15T06:39:25.385Z,99296.69
2023-04-15T06:41:53.127Z,99294.47
2023-04-15T06:44:20.846Z,99283.13
2023-04-15T06:46:48.630Z,99292.81
2023-04-15T06:49:16.206Z,99291.91
2023-04-15T06:51:43.957Z,99293.59
2023-04-15T06:54:12.261Z,99298.81
2023-04-15T06:56:40.312Z,99309.31
2023-04-15T06:59:08.756Z,99303.97
2023-04-15T07:01:36.675Z,99302.91
2023-04-15T07:04:04.594Z,99309.09
2023-04-15T07:06:32.897Z,99300.50
2023-04-15T07:09:02.381Z,99298.81
2023-04-15T07:11:30.195Z,99299.06
2023-04-15T07:13:57.794Z,99295.50
2023-04-15T07:16:28.598Z,99303.44
2023-04-15T07:18:57.401Z,99303.31
2023-04-15T07:21:25.004Z,99312.88
2023-04-15T07:23:52.799Z,99305.63
2023-04-15T07:26:20.601Z,99299.34
2023-04-15T07:28:48.664Z,99298.63
2023-04-15T07:31:16.737Z,99299.47
2023-04-15T07:33:44.765Z,99295.69
2023-04-15T07:36:12.364Z,99299.16
2023-04-15T07:38:40.573Z,99302.50
2023-04-15T07:41:08.414Z,99305.00
2023-04-15T07:43:36.027Z,99306.78
2023-04-15T07:46:04.034Z,99313.34
2023-04-15T07:48:31.682Z,99310.22
2023-04-15T07:50:59.295Z,99309.78
2023-04-15T07:53:26.970Z,99307.53
2023-04-15T07:55:54.680Z,99308.88
2023-04-15T07:58:22.710Z,99302.22
2023-04-15T08:00:50.540Z,99300.63
2023-04-15T08:03:18.658Z,99293.97
2023-04-15T08:05:47.414Z,99298.94
2023-04-15T08:08:15.091Z,99304.97
2023-04-15T08:10:43.160Z,99301.78
2023-04-15T08:13:11.030Z,99304.75
2023-04-15T08:15:38.967Z,99308.81
2023-04-15T08:18:07.445Z,99309.25
2023-04-15T08:20:35.508Z,99307.97
2023-04-15T08:23:03.812Z,99311.22
2023-04-15T08:25:31.519Z,99301.13
2023-04-15T08:27:59.147Z,99312.75
2023-04-15T08:30:26.903Z,99306.75
2023-04-15T08:32:54.885Z,99316.53
2023-04-15T08:35:22.597Z,99310.38
2023-04-15T08:37:50.420Z,99311.78
2023-04-15T08:40:18.146Z,99318.25
2023-04-15T08:42:50.538Z,99314.03
2023-04-15T08:45:18.367Z,99317.84
2023-04-15T08:47:46.145Z,99321.19
2023-04-15T08:50:14.002Z,99323.16
2023-04-15T08:52:41.690Z,99323.03
2023-04-15T08:55:09.859Z,99322.88
2023-04-15T08:57:37.546Z,99316.56
2023-04-15T09:00:05.933Z,99328.63
2023-04-15T09:02:33.852Z,99324.72
2023-04-15T09:05:02.569Z,99330.44
2023-04-15T09:07:30.418Z,99335.09
2023-04-15T09:09:58.322Z,99335.38
2023-04-15T09:12:26.469Z,99345.47
2023-04-15T09:14:54.367Z,99344.06
2023-04-15T09:17:22.554Z,99350.25
2023-04-15T09:19:50.507Z,99351.19
2023-04-15T09:22:18.307Z,99346.84
2023-04-15T09:24:47.352Z,99362.69
2023-04-15T09:27:15.578Z,99356.38
2023-04-15T09:29:43.756Z,99356.69
2023-04-15T09:32:11.605Z,99354.56
2023-04-15T09:34:39.315Z,99365.38
2023-04-15T09:37:08.079Z,99360.59
2023-04-15T09:39:36.182Z,99360.06
2023-04-15T09:42:03.967Z,99363.41
2023-04-15T09:44:32.256Z,99362.59
2023-04-15T09:47:00.097Z,99365.63
2023-04-15T09:49:29.205Z,99362.69
2023-04-15T09:52:04.978Z,99371.81
2023-04-15T09:54:34.338Z,99374.34
2023-04-15T09:57:02.184Z,99377.97
2023-04-15T09:59:30.656Z,99370.00
2023-04-15T10:01:58.711Z,99378.13
2023-04-15T10:04:26.903Z,99381.75
2023-04-15T10:06:55.273Z,99384.72
2023-04-15T10:09:23.200Z,99385.66
2023-04-15T10:11:51.581Z,99392.28
2023-04-15T10:14:19.479Z,99387.81
2023-04-15T10:16:49.190Z,99389.22
2023-04-15T10:19:17.376Z,99392.72
2023-04-15T10:21:45.361Z,99388.66
2023-04-15T10:24:13.488Z,99395.22
2023-04-15T10:26:41.458Z,99397.63
2023-04-15T10:29:09.485Z,99398.97
2023-04-15T10:31:38.510Z,99396.91
2023-04-15T10:34:06.869Z,99401.78
2023-04-15T10:36:34.980Z,99398.66
2023-04-15T10:39:03.028Z,99397.00
2023-04-15T10:41:31.497Z,99416.47
2023-04-15T10:43:59.336Z,99413.81
2023-04-15T10:46:27.225Z,99414.66
2023-04-15T10:48:55.568Z,99421.94
2023-04-15T10:51:23.445Z,99412.69
2023-04-15T10:53:51.669Z,99419.97
2023-04-15T10:56:19.608Z,99419.38
2023-04-15T10:58:47.573Z,99424.38
2023-04-15T11:01:15.928Z,99420.56
2023-04-15T11:03:44.029Z,99429.09
2023-04-15T11:06:12.121Z,99426.97
2023-04-15T11:08:40.014Z,99436.31
2023-04-15T11:11:07.891Z,99441.91
2023-04-15T11:13:36.725Z,99437.69
2023-04-15T11:16:04.971Z,99440.63
2023-04-15T11:18:33.191Z,99449.84
2023-04-15T11:21:01.356Z,99443.13
2023-04-15T11:23:29.327Z,99450.22
2023-04-15T11:25:57.756Z,99446.59
2023-04-15T11:28:25.712Z,99453.34
2023-04-15T11:30:54.301Z,99451.53
2023-04-15T11:33:22.855Z,99462.16
2023-04-15T11:35:50.784Z,99455.16
2023-04-15T11:38:19.493Z,99457.97
2023-04-15T11:40:47.508Z,99468.84
2023-04-15T11:43:16.133Z,99461.97
2023-04-15T11:45:44.100Z,99470.22
2023-04-15T11:48:11.981Z,99477.34
2023-04-15T11:50:41.382Z,99472.97
2023-04-15T11:53:09.176Z,99484.38
2023-04-15T11:55:37.148Z,99478.09
2023-04-15T11:58:05.084Z,99481.34
2023-04-15T12:00:32.965Z,99491.00
2023-04-15T12:03:01.383Z,99489.16
2023-04-15T12:05:29.285Z,99494.25
2023-04-15T12:07:57.195Z,99492.28
2023-04-15T12:10:25.244Z,99487.66
2023-04-15T12:12:53.355Z,99491.88
2023-04-15T12:15:21.515Z,99496.22
2023-04-15T12:17:51.546Z,99506.63
2023-04-15T12:20:20.492Z,99506.06
2023-04-15T12:22:49.074Z,99509.69
2023-04-15T12:25:17.028Z,99515.38
2023-04-15T12:27:45.248Z,99513.56
2023-04-15T12:30:13.263Z,99512.72
2023-04-15T12:32:43.448Z,99514.53
2023-04-15T12:35:11.963Z,99527.84
2023-04-15T12:37:39.717Z,99530.50
2023-04-15T12:40:08.120Z,99531.50
2023-04-15T12:42:36.410Z,99536.81
2023-04-15T12:45:04.284Z,99541.28
2023-04-15T12:47:32.749Z,99541.28
2023-04-15T12:50:00.867Z,99539.47
2023-04-15T12:52:29.050Z,99545.38
2023-04-15T12:54:57.158Z,99545.09
2023-04-15T12:57:25.125Z,99549.22
2023-04-15T12:59:53.013Z,99552.69
2023-04-15T13:02:21.660Z,99557.03
2023-04-15T13:04:50.494Z,99555.34
2023-04-15T13:07:18.254Z,99553.66
2023-04-15T13:09:46.142Z,99555.25
2023-04-15T13:12:15.564Z,99556.91
2023-04-15T13:14:43.500Z,99559.00
2023-04-15T13:17:11.858Z,99561.94
2023-04-15T13:19:39.702Z,99570.16
2023-04-15T13:22:08.748Z,99565.81
2023-04-15T13:24:37.338Z,99571.13
2023-04-15T13:27:05.845Z,99563.25
2023-04-15T13:29:33.950Z,99570.41
2023-04-15T13:32:01.942Z,99565.91
2023-04-15T13:34:31.002Z,99567.63
2023-04-15T13:36:58.981Z,99579.09
2023-04-15T13:39:26.989Z,99583.59
2023-04-15T13:41:57.942Z,99579.22
2023-04-15T13:44:26.397Z,99581.06
2023-04-15T13:46:54.443Z,99584.69
2023-04-15T13:49:24.112Z,99584.69
2023-04-15T13:51:52.035Z,99585.66
2023-04-15T13:54:20.549Z,99597.25
2023-04-15T13:56:48.378Z,99598.97
2023-04-15T13:59:16.283Z,99595.47
2023-04-15T14:01:46.155Z,99602.47
2023-04-15T14:04:14.091Z,99604.28
2023-04-15T14:06:42.450Z,99607.06
2023-04-15T14:09:10.487Z,99611.53
2023-04-15T14:11:38.797Z,99609.84
2023-04-15T14:14:07.084Z,99616.03
2023-04-15T14:16:35.124Z,99619.50
2023-04-15T14:19:03.725Z,99623.03
2023-04-15T14:21:32.818Z,99623.03
2023-04-15T14:24:00.797Z,99624.59
2023-04-15T14:26:28.902Z,99630.63
2023-04-15T14:28:57.189Z,99630.63
2023-04-15T14:31:25.554Z,99631.63
2023-04-15T14:33:53.420Z,99631.84
2023-04-15T14:36:21.300Z,99634.78
2023-04-15T14:38:49.322Z,99635.03
2023-04-15T14:41:17.790Z,99644.00
2023-04-15T14:43:46.275Z,99636.94
2023-04-15T14:46:14.722Z,99641.53
2023-04-15T14:48:42.598Z,99643.59
2023-04-15T14:51:10.964Z,99650.00
2023-04-15T14:53:38.916Z,99651.25
2023-04-15T14:56:07.489Z,99657.66
2023-04-15T14:58:35.267Z,99661.41
2023-04-15T15:01:03.386Z,99662.38
2023-04-15T15:03:31.727Z,99665.03
2023-04-15T15:05:59.664Z,99669.50
2023-04-15T15:08:27.943Z,99669.63
2023-04-15T15:10:55.832Z,99668.91
2023-04-15T15:13:23.845Z,99669.03
2023-04-15T15:15:52.152Z,99675.56
2023-04-15T15:18:20.295Z,99676.91
2023-04-15T15:20:48.755Z,99685.00
2023-04-15T15:23:16.749Z,99687.06
2023-04-15T15:25:44.683Z,99692.63
2023-04-15T15:28:12.766Z,99693.59
2023-04-15T15:30:40.604Z,99699.88
2023-04-15T15:33:08.733Z,99702.53
2023-04-15T15:35:36.565Z,99701.78
2023-04-15T15:38:04.438Z,99711.72
2023-04-15T15:40:36.145Z,99715.47
2023-04-15T15:43:04.000Z,99710.28
2023-04-15T15:45:32.382Z,99722.81
2023-04-15T15:48:00.465Z,99725.75
2023-04-15T15:50:28.435Z,99724.16
2023-04-15T15:52:56.624Z,99725.25
2023-04-15T15:55:25.524Z,99733.47
2023-04-15T15:57:53.638Z,99736.38
2023-04-15T16:00:21.615Z,99742.00
2023-04-15T16:03:05.774Z,99742.38
2023-04-15T16:05:35.100Z,99748.91
2023-04-15T16:08:03.271Z,99747.56
2023-04-15T16:10:31.131Z,99752.38
2023-04-15T16:12:59.094Z,99752.50
2023-04-15T16:15:26.949Z,99761.44
2023-04-15T16:17:55.041Z,99764.09
2023-04-15T16:20:23.510Z,99757.91
2023-04-15T16:22:51.975Z,99770.38
2023-04-15T16:25:19.882Z,99768.53
2023-04-15T16:28:00.919Z,99769.41
2023-04-15T16:30:31.861Z,99775.69
2023-04-15T16:32:59.962Z,99772.31
2023-04-15T16:35:28.585Z,99778.44
2023-04-15T16:37:56.528Z,99779.31
2023-04-15T16:40:24.484Z,99778.44
2023-04-15T16:42:54.524Z,99791.00
2023-04-15T16:45:22.652Z,99786.66
2023-04-15T16:47:50.635Z,99784.00
2023-04-15T16:50:18.722Z,99792.06
2023-04-15T16:52:46.621Z,99793.75
2023-04-15T16:55:14.958Z,99795.69
2023-04-15T16:58:00.461Z,99804.53
2023-04-15T17:00:30.812Z,99799.06
2023-04-15T17:02:58.798Z,99803.66
2023-04-15T17:05:28.137Z,99809.84
2023-04-15T17:07:56.247Z,99803.66
2023-04-15T17:10:24.287Z,99817.81
2023-04-15T17:12:52.870Z,99823.94
2023-04-15T17:15:20.890Z,99816.09
2023-04-15T17:17:49.204Z,99828.53
2023-04-15T17:20:17.803Z,99832.88
2023-04-15T17:22:45.831Z,99838.28
2023-04-15T17:25:13.918Z,99839.16
2023-04-15T17:27:41.763Z,99847.13
2023-04-15T17:30:10.510Z,99845.44
2023-04-15T17:32:39.783Z,99840.94
2023-04-15T17:35:07.810Z,99845.53
2023-04-15T17:37:36.141Z,99845.53
2023-04-15T17:40:05.857Z,99849.16
2023-04-15T17:42:35.848Z,99848.31
2023-04-15T17:45:03.823Z,99852.78
2023-04-15T17:47:32.588Z,99864.38
2023-04-15T17:50:00.568Z,99859.16
2023-04-15T17:52:28.538Z,99864.47
2023-04-15T17:54:57.241Z,99864.47
2023-04-15T17:57:25.359Z,99869.78
2023-04-15T17:59:53.265Z,99868.09
2023-04-15T18:02:21.304Z,99871.56
2023-04-15T18:04:49.491Z,99876.78
2023-04-15T18:07:18.498Z,99875.97
2023-04-15T18:09:46.695Z,99881.38
2023-04-15T18:12:14.715Z,99879.44
2023-04-15T18:14:42.625Z,99884.66
2023-04-15T18:17:10.464Z,99883.78
2023-04-15T18:19:38.193Z,99875.97
2023-04-15T18:22:06.179Z,99889.25
2023-04-15T18:24:33.946Z,99883.94
2023-04-15T18:27:02.463Z,99888.38
2023-04-15T18:29:31.867Z,99894.66
2023-04-15T18:32:00.980Z,99897.31
2023-04-15T18:34:28.799Z,99903.59
2023-04-15T18:36:56.655Z,99906.25
2023-04-15T18:39:24.518Z,99909.84
2023-04-15T18:41:52.442Z,99923.97
2023-04-15T18:44:20.846Z,99925.88
2023-04-15T18:46:48.696Z,99922.38
2023-04-15T18:49:16.488Z,99927.69
2023-04-15T18:51:44.443Z,99929.38
2023-04-15T18:54:12.819Z,99925.88
2023-04-15T18:56:41.188Z,99934.81
2023-04-15T18:59:29.325Z,99937.56
2023-04-15T19:01:56.908Z,99945.53
2023-04-15T19:04:24.973Z,99940.22
2023-04-15T19:06:53.609Z,99950.00
2023-04-15T19:09:21.464Z,99950.13
2023-04-15T19:11:49.438Z,99954.47
2023-04-15T19:14:17.727Z,99960.59
2023-04-15T19:16:45.705Z,99953.59
2023-04-15T19:19:15.140Z,99963.41
2023-04-15T19:21:43.108Z,99966.88
2023-04-15T19:24:10.963Z,99971.38
2023-04-15T19:26:38.981Z,99971.47
2023-04-15T19:29:07.083Z,99967.94
2023-04-15T19:31:35.461Z,99969.78
2023-04-15T19:34:03.464Z,99974.22
2023-04-15T19:36:31.801Z,99980.50
2023-04-15T19:38:59.651Z,99981.56
2023-04-15T19:41:27.531Z,99975.41
2023-04-15T19:43:56.182Z,99976.38
2023-04-15T19:46:24.290Z,99974.78
2023-04-15T19:48:53.395Z,99971.28
2023-04-15T19:51:21.458Z,99974.78
2023-04-15T19:53:49.831Z,99979.25
2023-04-15T19:56:18.438Z,99984.44
2023-04-15T19:58:51.053Z,99984.34
2023-04-15T20:01:19.049Z,99985.06
2023-04-15T20:03:46.937Z,99993.03
2023-04-15T20:06:15.011Z,99993.03
2023-04-15T20:08:43.504Z,99990.38
2023-04-15T20:11:11.441Z,99993.78
2023-04-15T20:13:42.984Z,99992.06
2023-04-15T20:16:11.946Z,99995.69
2023-04-15T20:18:39.768Z,100003.66
2023-04-15T20:21:08.113Z,100006.31
2023-04-15T20:23:36.283Z,100013.41
2023-04-15T20:26:04.104Z,100003.75
2023-04-15T20:28:31.913Z,100010.91
2023-04-15T20:30:59.824Z,100003.13
2023-04-15T20:33:28.473Z,100010.91
2023-04-15T20:35:56.322Z,100016.06
2023-04-15T20:38:24.302Z,100024.16
2023-04-15T20:40:52.607Z,100008.34
2023-04-15T20:43:21.865Z,100011.84
2023-04-15T20:45:50.578Z,100018.84
2023-04-15T20:48:19.437Z,100024.91
2023-04-15T20:50:47.372Z,100023.09
2023-04-15T20:53:15.251Z,100023.94
2023-04-15T20:55:43.789Z,100028.41
2023-04-15T20:58:11.671Z,100022.25
2023-04-15T21:00:40.376Z,100021.28
2023-04-15T21:03:08.396Z,100030.84
2023-04-15T21:05:36.509Z,100027.22
2023-04-15T21:08:04.420Z,100032.53
2023-04-15T21:10:35.458Z,100034.31
2023-04-15T21:13:03.299Z,100034.31
2023-04-15T21:15:31.154Z,100036.16
2023-04-15T21:17:59.052Z,100041.56
2023-04-15T21:20:27.397Z,100045.19
2023-04-15T21:22:55.826Z,100050.38
2023-04-15T21:25:23.924Z,100041.56
2023-04-15T21:27:51.810Z,100055.81
2023-04-15T21:30:19.693Z,100050.50
2023-04-15T21:32:47.476Z,100049.66
2023-04-15T21:35:15.716Z,100054.09
2023-04-15T21:37:43.658Z,100057.72
2023-04-15T21:40:11.834Z,100055.16
2023-04-15T21:42:39.607Z,100068.44
2023-04-15T21:45:07.475Z,100061.34
2023-04-15T21:48:04.196Z,100067.59
2023-04-15T21:50:24.390Z,100075.56
2023-04-15T21:52:52.251Z,100075.56
2023-04-15T21:55:21.385Z,100077.28
2023-04-15T21:57:49.943Z,100075.56
2023-04-15T22:00:17.843Z,100071.09
2023-04-15T22:02:45.789Z,100076.41
2023-04-15T22:05:13.936Z,100085.22
2023-04-15T22:07:42.358Z,100082.44
2023-04-15T22:10:10.828Z,100075.34
2023-04-15T22:12:38.537Z,100080.66
2023-04-15T22:15:06.269Z,100084.19
2023-04-15T22:17:34.396Z,100087.66
2023-04-15T22:20:02.315Z,100085.88
2023-04-15T22:22:43.489Z,100085.97
2023-04-15T22:25:12.540Z,100086.69
2023-04-15T22:27:40.303Z,100093.84
2023-04-15T22:30:08.111Z,100095.53
2023-04-15T22:32:36.609Z,100096.34
2023-04-15T22:35:06.615Z,100102.63
2023-04-15T22:37:34.469Z,100107.94
2023-04-15T22:40:03.245Z,100094.66
2023-04-15T22:42:30.990Z,100102.53
2023-04-15T22:44:59.310Z,100103.34
2023-04-15T22:47:27.262Z,100103.34
2023-04-15T22:49:55.363Z,100105.91
2023-04-15T22:52:29.983Z,100110.41
2023-04-15T22:54:58.657Z,100110.50
2023-04-15T22:57:28.426Z,100109.75
2023-04-15T22:59:56.214Z,100120.38
2023-04-15T23:02:24.248Z,100122.19
2023-04-15T23:04:52.244Z,100124.81
2023-04-15T23:07:19.925Z,100118.56
2023-04-15T23:09:48.215Z,100123.03
2023-04-15T23:12:15.970Z,100132.78
2023-04-15T23:14:43.682Z,100124.81
2023-04-15T23:17:11.470Z,100134.63
2023-04-15T23:19:39.127Z,100137.38
2023-04-15T23:22:07.590Z,100141.94
2023-04-15T23:24:35.468Z,100140.03
2023-04-15T23:27:03.148Z,100140.03
2023-04-15T23:29:30.888Z,100137.38
2023-04-15T23:31:58.643Z,100134.72
2023-04-15T23:34:26.429Z,100139.06
2023-04-15T23:36:54.159Z,100144.28
2023-04-15T23:39:22.025Z,100145.09
2023-04-15T23:41:49.677Z,100140.75
2023-04-15T23:44:17.311Z,100148.63
2023-04-15T23:46:45.097Z,100141.63
2023-04-15T23:49:12.874Z,100146.06
2023-04-15T23:51:40.570Z,100148.72
2023-04-15T23:54:08.695Z,100138.09
2023-04-15T23:56:36.542Z,100148.72
2023-04-15T23:59:04.854Z,100152.34
